createdAt,value
2023-07-02T00:01:46.225Z,11.27
2023-07-02T00:04:16.336Z,12.25
2023-07-02T00:06:48.555Z,11.85
2023-07-02T00:09:15.454Z,14.63
2023-07-02T00:11:46.371Z,15.48
2023-07-02T00:14:12.833Z,13.15
2023-07-02T00:16:41.521Z,10.63
2023-07-02T00:19:07.460Z,11.38
2023-07-02T00:21:33.635Z,11.68
2023-07-02T00:24:00.649Z,11.43
2023-07-02T00:26:28.036Z,12.15
2023-07-02T00:28:54.913Z,10.55
2023-07-02T00:31:20.922Z,15.68
2023-07-02T00:33:46.909Z,11.70
2023-07-02T00:36:17.031Z,10.98
2023-07-02T00:38:45.077Z,15.25
2023-07-02T00:41:11.702Z,11.73
2023-07-02T00:43:43.928Z,10.40
2023-07-02T00:46:23.185Z,10.93
2023-07-02T00:48:50.061Z,10.93
2023-07-02T00:51:20.780Z,13.40
2023-07-02T00:53:48.624Z,14.15
2023-07-02T00:56:15.247Z,13.65
2023-07-02T00:58:48.624Z,13.70
2023-07-02T01:01:19.046Z,10.25
2023-07-02T01:04:00.058Z,13.35
2023-07-02T01:06:36.336Z,10.90
2023-07-02T01:09:05.104Z,11.32
2023-07-02T01:11:32.953Z,11.18
2023-07-02T01:14:11.636Z,16.48
2023-07-02T01:16:39.511Z,12.60
2023-07-02T01:19:13.762Z,12.93
2023-07-02T01:21:39.884Z,10.27
2023-07-02T01:24:06.540Z,12.23
2023-07-02T01:26:37.456Z,16.83
2023-07-02T01:29:20.491Z,12.35
2023-07-02T01:31:47.428Z,17.50
2023-07-02T01:34:13.845Z,12.90
2023-07-02T01:36:40.402Z,13.40
2023-07-02T01:39:06.788Z,14.98
2023-07-02T01:41:41.773Z,18.17
2023-07-02T01:44:07.605Z,16.48
2023-07-02T01:46:33.505Z,13.88
2023-07-02T01:48:59.370Z,15.10
2023-07-02T01:51:25.615Z,15.63
2023-07-02T01:53:51.472Z,11.48
2023-07-02T01:56:17.375Z,14.73
2023-07-02T01:58:43.188Z,11.55
2023-07-02T02:01:09.091Z,10.40
2023-07-02T02:03:35.214Z,13.40
2023-07-02T02:06:01.243Z,17.63
2023-07-02T02:08:27.091Z,17.38
2023-07-02T02:10:52.868Z,16.80
2023-07-02T02:13:18.678Z,19.38
2023-07-02T02:15:44.585Z,18.70
2023-07-02T02:18:10.515Z,11.57
2023-07-02T02:20:46.581Z,10.98
2023-07-02T02:23:22.630Z,13.32
2023-07-02T02:25:48.444Z,16.45
2023-07-02T02:28:14.230Z,17.42
2023-07-02T02:30:40.056Z,15.02
2023-07-02T02:33:05.921Z,16.88
2023-07-02T02:35:31.762Z,15.90
2023-07-02T02:37:57.738Z,15.13
2023-07-02T02:40:24.502Z,16.05
2023-07-02T02:42:50.307Z,16.40
2023-07-02T02:45:16.147Z,17.55
2023-07-02T02:47:42.013Z,19.95
2023-07-02T02:50:09.917Z,15.55
2023-07-02T02:52:35.805Z,18.63
2023-07-02T02:55:01.664Z,15.57
2023-07-02T02:57:27.528Z,16.30
2023-07-02T02:59:53.399Z,16.33
2023-07-02T03:02:19.242Z,18.83
2023-07-02T03:04:45.703Z,20.95
2023-07-02T03:07:11.660Z,16.17
2023-07-02T03:09:37.675Z,16.60
2023-07-02T03:12:03.966Z,18.63
2023-07-02T03:14:29.880Z,17.38
2023-07-02T03:16:55.854Z,14.50
2023-07-02T03:19:22.285Z,22.90
2023-07-02T03:21:48.140Z,17.15
2023-07-02T03:24:14.008Z,20.63
2023-07-02T03:26:40.794Z,18.40
2023-07-02T03:29:07.107Z,15.20
2023-07-02T03:31:33.050Z,14.48
2023-07-02T03:34:02.470Z,17.05
2023-07-02T03:36:28.306Z,15.52
2023-07-02T03:38:54.060Z,19.55
2023-07-02T03:41:19.897Z,15.82
2023-07-02T03:43:45.735Z,19.55
2023-07-02T03:46:11.615Z,22.45
2023-07-02T03:48:37.483Z,20.77
2023-07-02T03:51:03.753Z,19.67
2023-07-02T03:53:29.560Z,18.38
2023-07-02T03:55:55.364Z,21.05
2023-07-02T03:58:21.200Z,22.08
2023-07-02T04:00:50.158Z,19.70
2023-07-02T04:03:17.028Z,21.25
2023-07-02T04:05:43.634Z,24.15
2023-07-02T04:08:09.461Z,23.30
2023-07-02T04:10:35.336Z,21.20
2023-07-02T04:13:01.136Z,23.92
2023-07-02T04:15:27.053Z,22.80
2023-07-02T04:17:53.358Z,26.63
2023-07-02T04:20:20.340Z,24.85
2023-07-02T04:22:46.626Z,32.03
2023-07-02T04:25:31.024Z,23.27
2023-07-02T04:28:02.418Z,25.60
2023-07-02T04:30:28.229Z,26.80
2023-07-02T04:32:54.073Z,23.92
2023-07-02T04:35:20.029Z,27.08
2023-07-02T04:37:46.142Z,28.33
2023-07-02T04:40:12.185Z,32.25
2023-07-02T04:42:47.251Z,33.55
2023-07-02T04:45:17.656Z,27.30
2023-07-02T04:47:44.570Z,28.48
2023-07-02T04:50:11.930Z,29.05
2023-07-02T04:52:39.147Z,31.38
2023-07-02T04:55:06.084Z,33.50
2023-07-02T04:57:32.006Z,28.73
2023-07-02T04:59:57.940Z,32.35
2023-07-02T05:02:23.806Z,38.13
2023-07-02T05:04:49.706Z,34.00
2023-07-02T05:07:18.689Z,33.20
2023-07-02T05:09:44.469Z,39.10
2023-07-02T05:12:10.430Z,40.88
2023-07-02T05:14:36.307Z,33.45
2023-07-02T05:17:02.411Z,30.05
2023-07-02T05:19:28.508Z,31.35
2023-07-02T05:21:54.315Z,31.83
2023-07-02T05:24:20.394Z,30.02
2023-07-02T05:26:46.756Z,33.50
2023-07-02T05:29:14.107Z,30.15
2023-07-02T05:31:40.185Z,42.60
2023-07-02T05:34:06.083Z,33.97
2023-07-02T05:36:31.886Z,37.05
2023-07-02T05:38:57.659Z,33.15
2023-07-02T05:41:23.773Z,36.17
2023-07-02T05:43:49.805Z,36.63
2023-07-02T05:46:15.764Z,33.15
2023-07-02T05:48:42.368Z,33.22
2023-07-02T05:51:08.488Z,34.83
2023-07-02T05:53:34.909Z,40.42
2023-07-02T05:56:00.744Z,33.35
2023-07-02T05:58:34.909Z,38.17
2023-07-02T06:01:06.252Z,38.47
2023-07-02T06:03:32.802Z,29.67
2023-07-02T06:05:58.801Z,37.97
2023-07-02T06:08:24.716Z,42.63
2023-07-02T06:10:50.964Z,36.00
2023-07-02T06:13:17.216Z,35.42
2023-07-02T06:15:43.572Z,40.05
2023-07-02T06:18:09.558Z,38.97
2023-07-02T06:20:35.447Z,37.15
2023-07-02T06:23:01.260Z,37.03
2023-07-02T06:25:27.246Z,36.60
2023-07-02T06:27:55.376Z,33.70
2023-07-02T06:30:30.205Z,37.65
2023-07-02T06:32:56.317Z,35.45
2023-07-02T06:35:22.264Z,40.08
2023-07-02T06:37:48.380Z,36.10
2023-07-02T06:40:14.703Z,33.40
2023-07-02T06:42:40.955Z,32.85
2023-07-02T06:45:08.358Z,37.88
2023-07-02T06:47:34.205Z,31.52
2023-07-02T06:50:00.356Z,34.40
2023-07-02T06:52:26.216Z,38.85
2023-07-02T06:54:52.015Z,37.63
2023-07-02T06:57:17.822Z,32.70
2023-07-02T06:59:43.606Z,36.05
2023-07-02T07:02:09.900Z,30.60
2023-07-02T07:04:35.766Z,34.42
2023-07-02T07:07:03.217Z,31.92
2023-07-02T07:09:32.195Z,40.22
2023-07-02T07:11:58.189Z,33.88
2023-07-02T07:14:24.080Z,31.88
2023-07-02T07:16:50.766Z,34.50
2023-07-02T07:19:17.143Z,31.70
2023-07-02T07:21:44.031Z,34.38
2023-07-02T07:24:10.005Z,33.97
2023-07-02T07:26:35.823Z,28.52
2023-07-02T07:29:01.801Z,30.70
2023-07-02T07:31:27.655Z,34.65
2023-07-02T07:33:53.474Z,29.75
2023-07-02T07:36:19.837Z,33.75
2023-07-02T07:38:45.629Z,37.65
2023-07-02T07:41:11.668Z,38.85
2023-07-02T07:43:37.585Z,35.55
2023-07-02T07:46:03.537Z,33.83
2023-07-02T07:48:29.506Z,34.53
2023-07-02T07:50:55.275Z,32.63
2023-07-02T07:53:21.191Z,30.20
2023-07-02T07:55:47.168Z,29.33
2023-07-02T07:58:13.148Z,29.90
2023-07-02T08:00:38.980Z,30.77
2023-07-02T08:03:04.914Z,26.38
2023-07-02T08:05:31.412Z,27.80
2023-07-02T08:07:58.347Z,29.40
2023-07-02T08:10:25.379Z,23.58
2023-07-02T08:12:52.788Z,28.70
2023-07-02T08:15:19.045Z,34.97
2023-07-02T08:17:45.275Z,27.00
2023-07-02T08:20:12.153Z,26.85
2023-07-02T08:22:39.240Z,27.17
2023-07-02T08:25:05.988Z,28.60
2023-07-02T08:27:32.078Z,30.80
2023-07-02T08:29:57.904Z,29.17
2023-07-02T08:32:24.754Z,28.83
2023-07-02T08:34:53.757Z,27.77
2023-07-02T08:37:21.187Z,29.17
2023-07-02T08:39:49.053Z,29.40
2023-07-02T08:42:17.272Z,32.17
2023-07-02T08:44:47.024Z,29.73
2023-07-02T08:47:13.157Z,28.55
2023-07-02T08:49:40.272Z,30.30
2023-07-02T08:52:06.669Z,28.05
2023-07-02T08:54:32.511Z,27.92
2023-07-02T08:56:58.518Z,26.30
2023-07-02T08:59:24.828Z,27.98
2023-07-02T09:01:53.823Z,27.52
2023-07-02T09:04:26.685Z,29.75
2023-07-02T09:07:09.860Z,26.85
2023-07-02T09:09:49.895Z,35.38
2023-07-02T09:12:25.792Z,32.13
2023-07-02T09:14:59.093Z,27.00
2023-07-02T09:17:36.387Z,32.83
2023-07-02T09:20:06.155Z,30.52
2023-07-02T09:22:32.053Z,29.67
2023-07-02T09:24:59.570Z,27.08
2023-07-02T09:27:42.543Z,27.60
2023-07-02T09:30:10.536Z,30.25
2023-07-02T09:32:36.736Z,27.75
2023-07-02T09:35:02.970Z,28.45
2023-07-02T09:37:29.237Z,24.13
2023-07-02T09:39:56.541Z,32.08
2023-07-02T09:42:24.434Z,39.00
2023-07-02T09:44:52.691Z,26.95
2023-07-02T09:47:19.688Z,32.70
2023-07-02T09:49:58.388Z,30.15
2023-07-02T09:52:25.079Z,27.15
2023-07-02T09:54:50.935Z,33.55
2023-07-02T09:57:16.858Z,27.95
2023-07-02T09:59:43.024Z,36.33
2023-07-02T10:02:13.301Z,31.20
2023-07-02T10:04:43.986Z,29.70
2023-07-02T10:07:10.925Z,31.83
2023-07-02T10:09:38.018Z,32.28
2023-07-02T10:12:17.900Z,32.20
2023-07-02T10:14:44.790Z,23.65
2023-07-02T10:17:10.883Z,30.58
2023-07-02T10:19:36.743Z,37.17
2023-07-02T10:22:04.631Z,30.42
2023-07-02T10:24:30.990Z,29.15
2023-07-02T10:27:01.739Z,32.88
2023-07-02T10:29:28.989Z,33.60
2023-07-02T10:31:56.773Z,30.15
2023-07-02T10:34:33.701Z,34.58
2023-07-02T10:37:01.645Z,26.85
2023-07-02T10:39:30.117Z,28.17
2023-07-02T10:42:09.493Z,35.40
2023-07-02T10:44:46.605Z,32.40
2023-07-02T10:47:12.436Z,29.02
2023-07-02T10:49:38.256Z,26.95
2023-07-02T10:52:04.843Z,27.25
2023-07-02T10:54:45.347Z,23.80
2023-07-02T10:57:15.510Z,27.80
2023-07-02T10:59:41.414Z,33.42
2023-07-02T11:02:08.759Z,27.48
2023-07-02T11:04:36.032Z,29.52
2023-07-02T11:07:01.990Z,35.83
2023-07-02T11:09:28.003Z,31.05
2023-07-02T11:11:56.136Z,35.05
2023-07-02T11:14:35.588Z,33.10
2023-07-02T11:17:06.651Z,32.90
2023-07-02T11:19:36.601Z,34.45
2023-07-02T11:22:03.372Z,30.83
2023-07-02T11:24:34.828Z,37.30
2023-07-02T11:27:02.328Z,29.83
2023-07-02T11:29:32.014Z,29.45
2023-07-02T11:32:11.745Z,32.17
2023-07-02T11:34:39.290Z,36.65
2023-07-02T11:37:05.887Z,33.88
2023-07-02T11:39:32.354Z,34.65
2023-07-02T11:41:58.603Z,27.98
2023-07-02T11:44:24.514Z,31.67
2023-07-02T11:46:50.687Z,37.58
2023-07-02T11:49:16.626Z,28.73
2023-07-02T11:51:48.740Z,30.13
2023-07-02T11:54:16.158Z,27.48
2023-07-02T11:56:43.169Z,30.23
2023-07-02T11:59:09.320Z,27.17
2023-07-02T12:01:35.119Z,33.10
2023-07-02T12:04:01.106Z,33.55
2023-07-02T12:06:26.976Z,30.40
2023-07-02T12:08:52.792Z,28.92
2023-07-02T12:11:18.654Z,29.90
2023-07-02T12:13:44.498Z,34.25
2023-07-02T12:16:10.336Z,28.60
2023-07-02T12:18:36.227Z,28.83
2023-07-02T12:21:02.057Z,29.33
2023-07-02T12:23:27.967Z,30.77
2023-07-02T12:25:53.736Z,30.05
2023-07-02T12:28:19.577Z,26.52
2023-07-02T12:30:45.500Z,25.83
2023-07-02T12:33:11.295Z,27.13
2023-07-02T12:35:37.208Z,25.00
2023-07-02T12:38:08.473Z,28.45
2023-07-02T12:40:34.300Z,33.30
2023-07-02T12:43:00.306Z,23.23
2023-07-02T12:45:26.260Z,27.25
2023-07-02T12:47:52.198Z,27.38
2023-07-02T12:50:18.196Z,20.25
2023-07-02T12:52:44.238Z,25.25
2023-07-02T12:55:10.104Z,28.50
2023-07-02T12:57:35.989Z,22.83
2023-07-02T13:00:02.688Z,26.30
2023-07-02T13:02:28.616Z,25.63
2023-07-02T13:04:54.548Z,21.67
2023-07-02T13:07:20.526Z,21.85
2023-07-02T13:09:46.380Z,20.27
2023-07-02T13:12:12.598Z,23.52
2023-07-02T13:14:38.604Z,21.73
2023-07-02T13:17:05.651Z,20.90
2023-07-02T13:19:32.671Z,20.27
2023-07-02T13:21:58.496Z,23.05
2023-07-02T13:24:24.535Z,20.17
2023-07-02T13:26:50.994Z,21.17
2023-07-02T13:29:17.054Z,18.85
2023-07-02T13:31:42.946Z,22.75
2023-07-02T13:34:08.788Z,21.15
2023-07-02T13:36:34.672Z,21.08
2023-07-02T13:39:00.534Z,20.73
2023-07-02T13:41:26.999Z,38.63
2023-07-02T13:43:52.864Z,19.92
2023-07-02T13:46:18.679Z,19.48
2023-07-02T13:48:44.562Z,15.63
2023-07-02T13:51:10.381Z,18.45
2023-07-02T13:53:36.437Z,14.77
2023-07-02T13:56:02.317Z,18.63
2023-07-02T13:58:45.442Z,16.48
2023-07-02T14:01:11.214Z,15.57
2023-07-02T14:03:37.146Z,16.85
2023-07-02T14:06:03.028Z,17.98
2023-07-02T14:08:28.840Z,18.02
2023-07-02T14:10:54.662Z,18.08
2023-07-02T14:13:20.478Z,18.23
2023-07-02T14:15:46.511Z,25.20
2023-07-02T14:18:12.373Z,21.08
2023-07-02T14:20:38.182Z,18.00
2023-07-02T14:23:04.016Z,17.63
2023-07-02T14:25:41.415Z,16.98
2023-07-02T14:28:09.140Z,17.55
2023-07-02T14:30:35.335Z,18.23
2023-07-02T14:33:01.510Z,18.33
2023-07-02T14:35:28.420Z,17.13
2023-07-02T14:37:54.677Z,20.48
2023-07-02T14:40:20.866Z,23.10
2023-07-02T14:42:47.067Z,13.25
2023-07-02T14:45:12.996Z,16.95
2023-07-02T14:47:39.189Z,19.63
2023-07-02T14:50:06.056Z,17.52
2023-07-02T14:52:32.048Z,15.38
2023-07-02T14:54:59.760Z,19.58
2023-07-02T14:57:26.380Z,19.52
2023-07-02T14:59:52.497Z,18.98
2023-07-02T15:02:19.257Z,18.83
2023-07-02T15:04:45.526Z,23.73
2023-07-02T15:07:11.599Z,17.30
2023-07-02T15:09:38.368Z,19.02
2023-07-02T15:12:04.245Z,16.10
2023-07-02T15:14:30.085Z,21.17
2023-07-02T15:16:55.916Z,23.05
2023-07-02T15:19:24.094Z,22.85
2023-07-02T15:21:51.448Z,22.20
2023-07-02T15:24:17.466Z,18.08
2023-07-02T15:26:43.565Z,23.13
2023-07-02T15:29:09.616Z,21.27
2023-07-02T15:31:37.808Z,28.55
2023-07-02T15:34:03.660Z,17.45
2023-07-02T15:36:35.869Z,18.80
2023-07-02T15:39:03.748Z,20.77
2023-07-02T15:41:29.601Z,20.40
2023-07-02T15:44:03.449Z,20.48
2023-07-02T15:46:29.868Z,22.55
2023-07-02T15:48:55.752Z,21.05
2023-07-02T15:51:23.711Z,17.33
2023-07-02T15:53:51.524Z,22.15
2023-07-02T15:56:17.612Z,19.55
2023-07-02T15:58:43.419Z,25.42
2023-07-02T16:01:12.112Z,23.75
2023-07-02T16:03:38.177Z,19.33
2023-07-02T16:06:04.802Z,23.90
2023-07-02T16:08:30.928Z,18.00
2023-07-02T16:10:56.705Z,19.98
2023-07-02T16:13:22.573Z,25.85
2023-07-02T16:15:48.753Z,25.35
2023-07-02T16:18:15.295Z,25.60
2023-07-02T16:20:41.077Z,28.48
2023-07-02T16:23:08.707Z,20.58
2023-07-02T16:25:35.030Z,21.10
2023-07-02T16:28:02.329Z,25.17
2023-07-02T16:30:28.347Z,24.17
2023-07-02T16:32:54.422Z,20.20
2023-07-02T16:35:20.574Z,22.42
2023-07-02T16:37:46.432Z,20.27
2023-07-02T16:40:12.399Z,21.48
2023-07-02T16:42:38.587Z,20.83
2023-07-02T16:45:06.121Z,19.83
2023-07-02T16:47:35.226Z,24.70
2023-07-02T16:50:03.084Z,21.83
2023-07-02T16:52:28.958Z,21.25
2023-07-02T16:54:55.289Z,19.90
2023-07-02T16:57:21.537Z,19.52
2023-07-02T16:59:51.410Z,21.73
2023-07-02T17:02:17.268Z,23.10
2023-07-02T17:04:43.110Z,21.15
2023-07-02T17:07:09.080Z,23.20
2023-07-02T17:09:39.696Z,18.10
2023-07-02T17:12:07.227Z,22.17
2023-07-02T17:14:36.638Z,22.02
2023-07-02T17:17:06.088Z,22.00
2023-07-02T17:19:34.871Z,21.35
2023-07-02T17:22:02.672Z,20.67
2023-07-02T17:24:32.815Z,20.00
2023-07-02T17:26:58.913Z,24.15
2023-07-02T17:29:25.815Z,20.90
2023-07-02T17:31:54.157Z,20.95
2023-07-02T17:34:22.511Z,23.58
2023-07-02T17:36:53.507Z,24.15
2023-07-02T17:39:19.464Z,23.58
2023-07-02T17:41:46.869Z,22.80
2023-07-02T17:44:14.327Z,22.20
2023-07-02T17:46:41.475Z,22.33
2023-07-02T17:49:08.116Z,23.70
2023-07-02T17:51:35.332Z,19.40
2023-07-02T17:54:02.417Z,24.35
2023-07-02T17:56:28.804Z,23.70
2023-07-02T17:58:54.839Z,20.52
2023-07-02T18:01:21.282Z,21.77
2023-07-02T18:03:47.608Z,26.52
2023-07-02T18:06:13.499Z,22.63
2023-07-02T18:08:39.406Z,26.88
2023-07-02T18:11:05.341Z,25.65
2023-07-02T18:13:31.153Z,20.42
2023-07-02T18:15:57.110Z,19.95
2023-07-02T18:18:22.969Z,22.45
2023-07-02T18:20:49.859Z,19.33
2023-07-02T18:23:16.832Z,23.63
2023-07-02T18:25:42.788Z,22.70
2023-07-02T18:28:11.260Z,23.48
2023-07-02T18:30:42.826Z,24.30
2023-07-02T18:33:08.690Z,27.15
2023-07-02T18:35:36.768Z,20.55
2023-07-02T18:38:03.844Z,17.77
2023-07-02T18:40:30.269Z,22.30
2023-07-02T18:42:56.609Z,27.00
2023-07-02T18:45:23.107Z,21.75
2023-07-02T18:47:49.661Z,25.77
2023-07-02T18:50:16.542Z,23.08
2023-07-02T18:52:43.665Z,24.75
2023-07-02T18:55:10.363Z,25.83
2023-07-02T18:57:36.777Z,23.88
2023-07-02T19:00:05.729Z,22.38
2023-07-02T19:02:33.340Z,24.50
2023-07-02T19:04:59.929Z,20.75
2023-07-02T19:07:26.997Z,25.83
2023-07-02T19:09:55.219Z,21.98
2023-07-02T19:12:24.008Z,23.58
2023-07-02T19:14:50.093Z,24.63
2023-07-02T19:17:18.080Z,26.38
2023-07-02T19:19:44.001Z,27.40
2023-07-02T19:22:12.161Z,26.27
2023-07-02T19:24:38.412Z,24.38
2023-07-02T19:27:06.882Z,23.13
2023-07-02T19:29:32.766Z,24.55
2023-07-02T19:32:00.082Z,23.02
2023-07-02T19:34:28.902Z,24.80
2023-07-02T19:36:55.126Z,25.08
2023-07-02T19:39:21.474Z,23.65
2023-07-02T19:41:47.641Z,25.92
2023-07-02T19:44:15.707Z,38.25
2023-07-02T19:46:42.672Z,27.83
2023-07-02T19:49:10.280Z,24.20
2023-07-02T19:51:36.924Z,21.48
2023-07-02T19:54:06.353Z,24.90
2023-07-02T19:56:33.628Z,21.60
2023-07-02T19:58:59.532Z,29.77
2023-07-02T20:01:25.551Z,26.00
2023-07-02T20:03:52.184Z,20.38
2023-07-02T20:06:18.952Z,24.33
2023-07-02T20:08:44.779Z,23.90
2023-07-02T20:11:11.009Z,22.85
2023-07-02T20:13:37.272Z,27.38
2023-07-02T20:16:04.451Z,22.92
2023-07-02T20:18:34.275Z,26.58
2023-07-02T20:21:01.800Z,26.35
2023-07-02T20:23:27.614Z,23.27
2023-07-02T20:25:56.468Z,21.20
2023-07-02T20:28:22.507Z,26.48
2023-07-02T20:30:48.368Z,26.95
2023-07-02T20:33:14.295Z,28.48
2023-07-02T20:35:41.695Z,24.77
2023-07-02T20:38:08.751Z,32.08
2023-07-02T20:40:34.513Z,26.67
2023-07-02T20:43:00.353Z,28.73
2023-07-02T20:45:30.615Z,21.63
2023-07-02T20:48:00.473Z,27.05
2023-07-02T20:50:27.784Z,27.00
2023-07-02T20:52:54.118Z,25.15
2023-07-02T20:55:20.438Z,27.45
2023-07-02T20:57:46.303Z,24.88
2023-07-02T21:00:12.770Z,25.48
2023-07-02T21:02:40.143Z,26.85
2023-07-02T21:05:06.574Z,22.70
2023-07-02T21:07:32.418Z,29.67
2023-07-02T21:09:58.283Z,29.15
2023-07-02T21:12:24.167Z,24.30
2023-07-02T21:14:54.415Z,31.15
2023-07-02T21:17:22.849Z,23.85
2023-07-02T21:19:48.696Z,33.47
2023-07-02T21:22:14.554Z,28.20
2023-07-02T21:24:40.347Z,24.52
2023-07-02T21:27:06.786Z,26.60
2023-07-02T21:29:32.590Z,29.35
2023-07-02T21:31:58.494Z,22.08
2023-07-02T21:34:24.523Z,26.80
2023-07-02T21:36:51.048Z,24.05
2023-07-02T21:39:16.972Z,25.60
2023-07-02T21:41:42.816Z,26.85
2023-07-02T21:44:08.628Z,26.10
2023-07-02T21:46:34.620Z,23.80
2023-07-02T21:49:00.893Z,24.70
2023-07-02T21:51:26.708Z,22.27
2023-07-02T21:53:52.514Z,22.02
2023-07-02T21:56:21.416Z,23.90
2023-07-02T21:58:48.648Z,27.02
2023-07-02T22:01:15.709Z,28.27
2023-07-02T22:03:41.913Z,25.63
2023-07-02T22:06:08.436Z,24.77
2023-07-02T22:08:34.499Z,26.08
2023-07-02T22:11:12.804Z,21.15
2023-07-02T22:13:46.401Z,28.38
2023-07-02T22:16:12.197Z,26.15
2023-07-02T22:18:38.029Z,24.52
2023-07-02T22:21:07.716Z,22.27
2023-07-02T22:23:33.979Z,19.77
2023-07-02T22:25:59.881Z,25.05
2023-07-02T22:28:25.659Z,21.50
2023-07-02T22:30:51.420Z,18.20
2023-07-02T22:33:17.211Z,19.70
2023-07-02T22:35:43.084Z,25.33
2023-07-02T22:38:10.814Z,21.08
2023-07-02T22:40:36.640Z,21.98
2023-07-02T22:43:02.685Z,17.85
2023-07-02T22:45:29.395Z,19.83
2023-07-02T22:47:55.405Z,21.67
2023-07-02T22:50:21.432Z,16.80
2023-07-02T22:52:50.357Z,23.88
2023-07-02T22:55:16.268Z,13.77
2023-07-02T22:57:43.863Z,23.23
2023-07-02T23:00:13.829Z,21.33
2023-07-02T23:02:48.759Z,15.10
2023-07-02T23:05:17.884Z,16.52
2023-07-02T23:07:45.382Z,18.77
2023-07-02T23:10:15.993Z,17.48
2023-07-02T23:12:43.712Z,14.82
2023-07-02T23:15:14.595Z,13.60
2023-07-02T23:17:52.189Z,16.60
2023-07-02T23:20:18.922Z,14.63
2023-07-02T23:22:47.792Z,18.33
2023-07-02T23:25:18.057Z,15.80
2023-07-02T23:27:47.024Z,18.52
2023-07-02T23:30:17.344Z,20.70
2023-07-02T23:32:44.986Z,13.48
2023-07-02T23:35:12.985Z,18.17
2023-07-02T23:37:41.989Z,15.13
2023-07-02T23:40:10.314Z,13.55
2023-07-02T23:42:37.181Z,18.52
2023-07-02T23:45:08.541Z,17.73
2023-07-02T23:47:34.685Z,17.23
2023-07-02T23:50:00.954Z,16.50
2023-07-02T23:52:27.262Z,17.35
2023-07-02T23:54:53.744Z,15.05
2023-07-02T23:57:20.282Z,15.32
2023-07-02T23:59:46.146Z,14.75
